createdAt,value
2023-05-20T00:01:46.420Z,2.80
2023-05-20T00:04:31.838Z,3.00
2023-05-20T00:07:17.193Z,2.55
2023-05-20T00:10:02.641Z,2.70
2023-05-20T00:12:48.040Z,2.50
2023-05-20T00:15:34.498Z,2.65
2023-05-20T00:18:20.257Z,2.40
2023-05-20T00:21:05.717Z,2.58
2023-05-20T00:23:51.645Z,2.42
2023-05-20T00:26:36.667Z,2.75
2023-05-20T00:29:22.231Z,2.60
2023-05-20T00:32:07.630Z,2.53
2023-05-20T00:34:57.067Z,2.55
2023-05-20T00:37:42.589Z,2.50
2023-05-20T00:40:27.934Z,2.60
2023-05-20T00:43:13.297Z,2.30
2023-05-20T00:45:58.851Z,2.65
2023-05-20T00:48:44.592Z,2.38
2023-05-20T00:51:29.711Z,2.42
2023-05-20T00:54:15.041Z,2.40
2023-05-20T00:57:00.279Z,2.67
2023-05-20T00:59:45.846Z,2.50
2023-05-20T01:02:31.092Z,2.60
2023-05-20T01:05:16.443Z,2.60
2023-05-20T01:08:01.774Z,3.05
2023-05-20T01:10:51.427Z,2.40
2023-05-20T01:13:46.708Z,2.60
2023-05-20T01:16:32.786Z,2.60
2023-05-20T01:19:31.165Z,2.65
2023-05-20T01:22:16.607Z,2.72
2023-05-20T01:25:01.992Z,2.78
2023-05-20T01:27:48.292Z,2.63
2023-05-20T01:30:38.775Z,2.85
2023-05-20T01:33:25.326Z,2.78
2023-05-20T01:36:11.287Z,2.70
2023-05-20T01:38:58.327Z,2.80
2023-05-20T01:41:45.092Z,2.67
2023-05-20T01:44:30.900Z,3.13
2023-05-20T01:47:16.156Z,2.90
2023-05-20T01:50:01.402Z,2.80
2023-05-20T01:52:46.933Z,2.70
2023-05-20T01:55:32.466Z,2.88
2023-05-20T01:58:17.869Z,3.05
2023-05-20T02:01:03.209Z,3.10
2023-05-20T02:03:48.497Z,2.70
2023-05-20T02:06:33.393Z,3.03
2023-05-20T02:09:18.862Z,2.80
2023-05-20T02:12:04.030Z,3.22
2023-05-20T02:14:49.202Z,2.95
2023-05-20T02:17:34.700Z,2.63
2023-05-20T02:20:20.125Z,3.30
2023-05-20T02:23:05.314Z,2.90
2023-05-20T02:25:50.629Z,2.92
2023-05-20T02:28:35.953Z,3.13
2023-05-20T02:31:21.450Z,3.00
2023-05-20T02:34:06.844Z,3.08
2023-05-20T02:36:52.231Z,2.90
2023-05-20T02:39:37.413Z,2.92
2023-05-20T02:42:22.478Z,3.03
2023-05-20T02:45:08.263Z,3.55
2023-05-20T02:47:53.603Z,3.30
2023-05-20T02:50:39.322Z,3.03
2023-05-20T02:53:24.595Z,3.30
2023-05-20T02:56:09.920Z,3.30
2023-05-20T02:58:55.398Z,3.15
2023-05-20T03:01:40.752Z,3.30
2023-05-20T03:04:26.746Z,3.30
2023-05-20T03:07:11.948Z,3.55
2023-05-20T03:09:57.733Z,3.35
2023-05-20T03:12:42.888Z,3.45
2023-05-20T03:15:28.325Z,3.70
2023-05-20T03:18:13.900Z,3.47
2023-05-20T03:20:59.162Z,3.17
2023-05-20T03:23:44.497Z,3.40
2023-05-20T03:26:29.930Z,3.63
2023-05-20T03:29:16.336Z,3.40
2023-05-20T03:32:02.317Z,3.22
2023-05-20T03:34:47.385Z,3.45
2023-05-20T03:37:32.821Z,3.72
2023-05-20T03:40:18.264Z,3.50
2023-05-20T03:43:03.523Z,3.67
2023-05-20T03:45:48.987Z,3.55
2023-05-20T03:48:34.303Z,3.83
2023-05-20T03:51:19.617Z,3.58
2023-05-20T03:54:04.976Z,3.58
2023-05-20T03:56:50.465Z,3.78
2023-05-20T03:59:35.604Z,3.63
2023-05-20T04:02:21.115Z,3.47
2023-05-20T04:05:06.976Z,3.47
2023-05-20T04:07:52.060Z,3.60
2023-05-20T04:10:37.466Z,3.63
2023-05-20T04:13:22.941Z,4.20
2023-05-20T04:16:08.368Z,3.42
2023-05-20T04:18:53.586Z,3.80
2023-05-20T04:21:39.068Z,3.85
2023-05-20T04:24:25.500Z,3.90
2023-05-20T04:27:10.703Z,3.72
2023-05-20T04:29:55.537Z,3.50
2023-05-20T04:32:40.498Z,3.47
2023-05-20T04:35:25.852Z,3.40
2023-05-20T04:38:11.094Z,3.30
2023-05-20T04:40:56.494Z,3.58
2023-05-20T04:43:41.608Z,3.70
2023-05-20T04:46:27.044Z,3.70
2023-05-20T04:49:11.970Z,3.45
2023-05-20T04:51:56.927Z,3.70
2023-05-20T04:54:42.216Z,3.80
2023-05-20T04:57:27.722Z,3.55
2023-05-20T05:00:13.612Z,3.55
2023-05-20T05:02:58.839Z,3.97
2023-05-20T05:05:44.456Z,4.20
2023-05-20T05:08:29.575Z,3.90
2023-05-20T05:11:14.987Z,4.00
2023-05-20T05:14:00.461Z,4.20
2023-05-20T05:16:46.104Z,3.97
2023-05-20T05:19:31.135Z,4.05
2023-05-20T05:22:16.456Z,4.10
2023-05-20T05:25:02.073Z,4.03
2023-05-20T05:27:47.175Z,3.95
2023-05-20T05:30:32.626Z,3.90
2023-05-20T05:33:18.081Z,4.00
2023-05-20T05:36:03.781Z,4.10
2023-05-20T05:38:48.884Z,3.92
2023-05-20T05:41:34.430Z,4.40
2023-05-20T05:44:19.842Z,4.18
2023-05-20T05:47:05.074Z,3.97
2023-05-20T05:49:50.211Z,4.47
2023-05-20T05:52:36.165Z,3.97
2023-05-20T05:55:21.470Z,4.25
2023-05-20T05:58:07.050Z,4.63
2023-05-20T06:00:52.501Z,4.28
2023-05-20T06:03:37.854Z,4.22
2023-05-20T06:06:23.184Z,4.28
2023-05-20T06:09:08.880Z,4.50
2023-05-20T06:11:54.130Z,4.25
2023-05-20T06:14:41.625Z,4.13
2023-05-20T06:17:26.832Z,4.55
2023-05-20T06:20:12.602Z,5.20
2023-05-20T06:22:57.873Z,4.75
2023-05-20T06:25:43.339Z,4.20
2023-05-20T06:28:29.773Z,4.35
2023-05-20T06:31:15.145Z,4.45
2023-05-20T06:34:02.047Z,4.30
2023-05-20T06:36:48.433Z,4.53
2023-05-20T06:39:33.764Z,4.50
2023-05-20T06:42:22.142Z,4.72
2023-05-20T06:45:08.069Z,4.43
2023-05-20T06:47:53.453Z,4.10
2023-05-20T06:50:38.733Z,4.28
2023-05-20T06:53:24.021Z,4.60
2023-05-20T06:56:08.864Z,4.82
2023-05-20T06:58:55.400Z,4.30
2023-05-20T07:01:40.560Z,4.43
2023-05-20T07:04:25.806Z,4.50
2023-05-20T07:07:11.391Z,4.90
2023-05-20T07:09:57.590Z,4.70
2023-05-20T07:12:45.903Z,4.97
2023-05-20T07:15:31.116Z,5.03
2023-05-20T07:18:18.337Z,5.13
2023-05-20T07:21:03.422Z,4.60
2023-05-20T07:23:48.532Z,4.97
2023-05-20T07:26:33.870Z,5.28
2023-05-20T07:29:19.195Z,5.32
2023-05-20T07:32:06.327Z,4.50
2023-05-20T07:34:51.277Z,5.82
2023-05-20T07:37:36.601Z,5.30
2023-05-20T07:40:22.410Z,7.10
2023-05-20T07:43:08.477Z,7.07
2023-05-20T07:45:53.546Z,7.10
2023-05-20T07:48:38.834Z,7.57
2023-05-20T07:51:24.583Z,7.00
2023-05-20T07:54:10.003Z,7.18
2023-05-20T07:56:55.416Z,6.70
2023-05-20T07:59:40.847Z,6.43
2023-05-20T08:02:26.399Z,7.00
2023-05-20T08:05:11.945Z,6.28
2023-05-20T08:07:56.911Z,5.90
2023-05-20T08:10:42.479Z,6.55
2023-05-20T08:13:28.049Z,6.00
2023-05-20T08:16:13.325Z,6.60
2023-05-20T08:18:58.559Z,5.82
2023-05-20T08:21:43.710Z,6.32
2023-05-20T08:24:28.736Z,5.82
2023-05-20T08:27:14.077Z,5.72
2023-05-20T08:30:01.026Z,5.20
2023-05-20T08:32:46.581Z,5.40
2023-05-20T08:35:32.081Z,5.32
2023-05-20T08:38:17.371Z,5.13
2023-05-20T08:41:04.334Z,6.03
2023-05-20T08:43:51.921Z,5.22
2023-05-20T08:46:38.208Z,4.82
2023-05-20T08:49:23.477Z,5.10
2023-05-20T08:52:11.339Z,4.97
2023-05-20T08:54:57.908Z,5.95
2023-05-20T08:57:43.136Z,6.57
2023-05-20T09:00:28.569Z,5.18
2023-05-20T09:03:14.110Z,5.45
2023-05-20T09:06:08.071Z,5.93
2023-05-20T09:08:53.157Z,4.95
2023-05-20T09:11:40.270Z,4.80
2023-05-20T09:14:25.552Z,5.53
2023-05-20T09:17:10.946Z,4.45
2023-05-20T09:19:56.754Z,4.97
2023-05-20T09:22:42.111Z,4.95
2023-05-20T09:25:27.760Z,5.03
2023-05-20T09:28:12.840Z,5.40
2023-05-20T09:30:59.211Z,6.55
2023-05-20T09:33:44.647Z,6.20
2023-05-20T09:40:13.426Z,4.20
2023-05-20T09:43:01.784Z,5.60
2023-05-20T09:45:47.689Z,4.65
2023-05-20T09:48:35.297Z,4.15
2023-05-20T09:51:23.459Z,4.03
2023-05-20T09:54:09.312Z,3.90
2023-05-20T09:56:54.960Z,3.47
2023-05-20T09:59:40.989Z,3.45
2023-05-20T10:02:26.947Z,3.47
2023-05-20T10:05:17.374Z,3.50
2023-05-20T10:08:31.631Z,3.40
2023-05-20T10:11:28.103Z,3.30
2023-05-20T10:14:16.626Z,3.10
2023-05-20T10:20:04.568Z,3.20
2023-05-20T10:22:57.888Z,3.22
2023-05-20T10:25:53.664Z,3.00
2023-05-20T10:28:41.137Z,3.58
2023-05-20T10:31:26.203Z,3.65
2023-05-20T10:34:24.129Z,3.60
2023-05-20T10:37:08.984Z,3.40
2023-05-20T10:40:10.094Z,3.63
2023-05-20T10:42:55.546Z,3.33
2023-05-20T10:45:52.560Z,3.67
2023-05-20T10:48:42.066Z,3.40
2023-05-20T10:51:28.955Z,3.67
2023-05-20T10:54:14.872Z,3.60
2023-05-20T10:57:00.374Z,4.20
2023-05-20T10:59:45.544Z,4.22
2023-05-20T11:02:30.985Z,4.38
2023-05-20T11:05:17.322Z,3.72
2023-05-20T11:08:07.928Z,3.95
2023-05-20T11:10:56.971Z,4.07
2023-05-20T11:13:42.078Z,4.20
2023-05-20T11:16:27.457Z,3.90
2023-05-20T11:19:16.346Z,3.80
2023-05-20T11:22:01.615Z,4.38
2023-05-20T11:24:47.238Z,4.03
2023-05-20T11:27:32.283Z,4.57
2023-05-20T11:30:18.260Z,4.43
2023-05-20T11:33:04.492Z,4.85
2023-05-20T11:35:52.266Z,5.07
2023-05-20T11:38:37.266Z,5.10
2023-05-20T11:41:29.316Z,6.05
2023-05-20T11:44:14.684Z,4.97
2023-05-20T11:47:02.189Z,9.07
2023-05-20T11:49:48.894Z,5.13
2023-05-20T11:52:34.392Z,4.88
2023-05-20T11:55:19.716Z,5.22
2023-05-20T11:58:04.554Z,4.30
2023-05-20T12:00:55.026Z,5.15
2023-05-20T12:03:42.429Z,5.10
2023-05-20T12:06:27.693Z,4.82
2023-05-20T12:09:13.286Z,5.05
2023-05-20T12:11:58.736Z,4.80
2023-05-20T12:14:44.328Z,5.40
2023-05-20T12:17:29.632Z,5.40
2023-05-20T12:20:17.083Z,4.97
2023-05-20T12:23:02.410Z,5.22
2023-05-20T12:25:48.005Z,5.35
2023-05-20T12:28:33.195Z,5.20
2023-05-20T12:31:18.542Z,4.82
2023-05-20T12:34:03.510Z,4.55
2023-05-20T12:36:49.020Z,5.00
2023-05-20T12:39:34.468Z,5.07
2023-05-20T12:42:19.798Z,4.90
2023-05-20T12:45:06.163Z,4.85
2023-05-20T12:47:51.505Z,4.70
2023-05-20T12:50:36.988Z,4.70
2023-05-20T12:53:23.011Z,4.30
2023-05-20T12:56:08.522Z,4.65
2023-05-20T12:58:53.781Z,5.03
2023-05-20T13:01:39.348Z,4.60
2023-05-20T13:04:24.411Z,5.00
2023-05-20T13:07:09.830Z,4.90
2023-05-20T13:09:55.355Z,4.97
2023-05-20T13:12:40.763Z,4.63
2023-05-20T13:15:25.959Z,4.30
2023-05-20T13:18:11.689Z,4.47
2023-05-20T13:20:56.937Z,4.55
2023-05-20T13:23:42.504Z,4.30
2023-05-20T13:26:27.569Z,3.78
2023-05-20T13:29:13.300Z,3.70
2023-05-20T13:32:00.959Z,3.80
2023-05-20T13:34:47.134Z,3.65
2023-05-20T13:37:32.566Z,3.47
2023-05-20T13:40:17.902Z,3.55
2023-05-20T13:43:03.262Z,3.30
2023-05-20T13:45:48.725Z,4.15
2023-05-20T13:48:33.992Z,3.50
2023-05-20T13:51:19.765Z,3.53
2023-05-20T13:54:05.063Z,3.80
2023-05-20T13:56:50.550Z,3.88
2023-05-20T13:59:36.010Z,3.40
2023-05-20T14:02:21.424Z,4.03
2023-05-20T14:05:08.834Z,3.65
2023-05-20T14:07:54.281Z,3.80
2023-05-20T14:10:40.224Z,4.10
2023-05-20T14:13:25.832Z,4.25
2023-05-20T14:16:11.640Z,4.60
2023-05-20T14:18:57.838Z,4.22
2023-05-20T14:21:43.819Z,4.10
2023-05-20T14:24:29.266Z,4.10
2023-05-20T14:27:14.850Z,4.10
2023-05-20T14:30:01.870Z,3.80
2023-05-20T14:32:47.558Z,4.07
2023-05-20T14:35:32.984Z,3.80
2023-05-20T14:38:18.345Z,4.05
2023-05-20T14:41:03.778Z,4.32
2023-05-20T14:43:49.240Z,3.97
2023-05-20T14:46:34.226Z,4.32
2023-05-20T14:49:19.701Z,4.53
2023-05-20T14:52:05.957Z,5.30
2023-05-20T14:54:50.865Z,4.80
2023-05-20T14:57:36.487Z,3.70
2023-05-20T15:00:21.735Z,3.83
2023-05-20T15:03:07.702Z,3.88
2023-05-20T15:05:52.800Z,4.13
2023-05-20T15:08:38.705Z,3.90
2023-05-20T15:11:24.259Z,7.35
2023-05-20T15:14:09.624Z,4.32
2023-05-20T15:16:55.177Z,5.13
2023-05-20T15:19:41.426Z,4.88
2023-05-20T15:22:27.152Z,5.53
2023-05-20T15:25:12.497Z,6.28
2023-05-20T15:27:57.767Z,5.85
2023-05-20T15:30:43.319Z,5.65
2023-05-20T15:33:28.725Z,5.70
2023-05-20T15:36:14.100Z,6.07
2023-05-20T15:38:58.994Z,6.90
2023-05-20T15:41:44.742Z,7.07
2023-05-20T15:44:29.975Z,6.65
2023-05-20T15:47:15.037Z,7.25
2023-05-20T15:50:00.253Z,6.68
2023-05-20T15:52:45.466Z,6.55
2023-05-20T15:55:31.003Z,7.35
2023-05-20T15:58:16.451Z,7.00
2023-05-20T16:01:01.408Z,6.70
2023-05-20T16:03:46.860Z,7.40
2023-05-20T16:06:33.956Z,7.20
2023-05-20T16:09:19.104Z,8.80
2023-05-20T16:12:05.925Z,7.55
2023-05-20T16:14:50.901Z,7.50
2023-05-20T16:17:36.986Z,7.00
2023-05-20T16:20:22.182Z,7.43
2023-05-20T16:23:07.433Z,7.53
2023-05-20T16:25:52.730Z,6.53
2023-05-20T16:28:40.993Z,7.55
2023-05-20T16:31:26.152Z,7.60
2023-05-20T16:34:11.621Z,7.53
2023-05-20T16:36:57.174Z,7.15
2023-05-20T16:39:42.745Z,7.35
2023-05-20T16:42:28.034Z,8.38
2023-05-20T16:45:13.644Z,7.95
2023-05-20T16:47:58.637Z,8.15
2023-05-20T16:50:43.989Z,8.15
2023-05-20T16:53:29.407Z,7.70
2023-05-20T16:56:15.073Z,8.30
2023-05-20T16:59:00.246Z,8.30
2023-05-20T17:01:45.902Z,8.25
2023-05-20T17:04:31.318Z,9.05
2023-05-20T17:07:16.706Z,9.18
2023-05-20T17:10:02.073Z,9.13
2023-05-20T17:12:47.438Z,9.43
2023-05-20T17:15:32.743Z,8.50
2023-05-20T17:18:18.202Z,9.50
2023-05-20T17:21:03.567Z,9.15
2023-05-20T17:23:49.006Z,9.65
2023-05-20T17:26:34.490Z,9.65
2023-05-20T17:29:19.680Z,9.85
2023-05-20T17:32:05.091Z,9.95
2023-05-20T17:34:50.476Z,9.40
2023-05-20T17:37:35.993Z,9.15
2023-05-20T17:40:21.526Z,8.43
2023-05-20T17:43:07.050Z,8.90
2023-05-20T17:45:52.573Z,9.02
2023-05-20T17:48:38.020Z,8.88
2023-05-20T17:51:23.206Z,9.07
2023-05-20T17:54:08.580Z,9.55
2023-05-20T17:56:54.079Z,9.18
2023-05-20T17:59:39.607Z,9.00
2023-05-20T18:02:24.996Z,9.52
2023-05-20T18:05:10.731Z,9.32
2023-05-20T18:07:56.332Z,9.77
2023-05-20T18:10:41.561Z,10.20
2023-05-20T18:13:27.041Z,9.23
2023-05-20T18:16:12.711Z,9.45
2023-05-20T18:18:58.048Z,9.35
2023-05-20T18:21:43.518Z,9.50
2023-05-20T18:24:28.646Z,9.93
2023-05-20T18:27:14.135Z,9.77
2023-05-20T18:29:59.475Z,9.52
2023-05-20T18:32:45.049Z,9.95
2023-05-20T18:35:30.422Z,9.27
2023-05-20T18:38:15.925Z,9.57
2023-05-20T18:41:01.230Z,9.73
2023-05-20T18:43:46.631Z,9.90
2023-05-20T18:46:32.014Z,9.68
2023-05-20T18:49:17.405Z,9.35
2023-05-20T18:52:04.081Z,9.30
2023-05-20T18:54:49.217Z,10.57
2023-05-20T18:57:37.818Z,11.05
2023-05-20T19:00:23.085Z,11.02
2023-05-20T19:03:08.534Z,9.55
2023-05-20T19:05:53.656Z,12.80
2023-05-20T19:08:39.918Z,15.98
2023-05-20T19:11:25.022Z,9.70
2023-05-20T19:14:10.573Z,9.48
2023-05-20T19:16:55.899Z,8.80
2023-05-20T19:19:41.442Z,8.63
2023-05-20T19:22:26.821Z,8.55
2023-05-20T19:25:12.125Z,9.02
2023-05-20T19:27:57.258Z,8.80
2023-05-20T19:30:42.718Z,8.90
2023-05-20T19:33:28.121Z,8.88
2023-05-20T19:36:13.119Z,8.30
2023-05-20T19:38:58.643Z,8.57
2023-05-20T19:41:43.928Z,8.45
2023-05-20T19:44:29.306Z,7.65
2023-05-20T19:47:14.535Z,8.10
2023-05-20T19:49:59.781Z,8.60
2023-05-20T19:52:45.060Z,8.50
2023-05-20T19:55:30.600Z,7.90
2023-05-20T19:58:16.006Z,8.55
2023-05-20T20:01:01.298Z,8.07
2023-05-20T20:03:46.728Z,9.10
2023-05-20T20:06:32.010Z,8.88
2023-05-20T20:09:18.355Z,8.35
2023-05-20T20:12:05.182Z,8.30
2023-05-20T20:14:51.271Z,8.05
2023-05-20T20:17:36.564Z,7.68
2023-05-20T20:20:21.956Z,7.97
2023-05-20T20:23:08.288Z,7.82
2023-05-20T20:25:53.371Z,7.75
2023-05-20T20:28:38.866Z,7.50
2023-05-20T20:31:23.939Z,7.53
2023-05-20T20:34:09.416Z,8.02
2023-05-20T20:36:55.065Z,7.80
2023-05-20T20:39:40.858Z,7.68
2023-05-20T20:42:25.949Z,7.65
2023-05-20T20:45:11.579Z,7.63
2023-05-20T20:47:56.918Z,8.07
2023-05-20T20:50:46.261Z,7.38
2023-05-20T20:53:31.519Z,7.43
2023-05-20T20:56:16.948Z,7.40
2023-05-20T20:59:05.982Z,7.05
2023-05-20T21:01:51.059Z,7.20
2023-05-20T21:04:36.562Z,7.00
2023-05-20T21:07:21.868Z,7.50
2023-05-20T21:10:09.141Z,6.70
2023-05-20T21:12:55.023Z,7.30
2023-05-20T21:15:40.459Z,6.45
2023-05-20T21:18:25.839Z,6.65
2023-05-20T21:21:11.192Z,6.57
2023-05-20T21:23:56.882Z,7.13
2023-05-20T21:26:42.158Z,6.80
2023-05-20T21:29:27.485Z,6.38
2023-05-20T21:32:12.904Z,6.25
2023-05-20T21:34:58.428Z,6.43
2023-05-20T21:37:43.588Z,6.00
2023-05-20T21:40:29.529Z,6.47
2023-05-20T21:43:14.847Z,6.30
2023-05-20T21:46:00.381Z,5.93
2023-05-20T21:48:45.526Z,6.25
2023-05-20T21:51:30.883Z,6.45
2023-05-20T21:54:16.246Z,6.53
2023-05-20T21:57:01.595Z,5.90
2023-05-20T21:59:47.019Z,5.45
2023-05-20T22:02:32.338Z,6.57
2023-05-20T22:05:17.823Z,5.90
2023-05-20T22:08:02.914Z,5.63
2023-05-20T22:10:48.412Z,6.07
2023-05-20T22:13:34.876Z,6.00
2023-05-20T22:16:20.450Z,6.15
2023-05-20T22:19:05.880Z,6.05
2023-05-20T22:21:51.348Z,6.32
2023-05-20T22:24:36.577Z,5.50
2023-05-20T22:27:22.111Z,6.28
2023-05-20T22:30:08.066Z,6.20
2023-05-20T22:32:53.315Z,5.88
2023-05-20T22:35:39.160Z,6.30
2023-05-20T22:38:24.134Z,6.80
2023-05-20T22:41:10.414Z,5.78
2023-05-20T22:43:56.090Z,5.97
2023-05-20T22:46:41.360Z,6.35
2023-05-20T22:49:26.789Z,6.38
2023-05-20T22:52:12.239Z,6.30
2023-05-20T22:55:00.564Z,6.20
2023-05-20T22:57:45.910Z,6.10
2023-05-20T23:00:31.271Z,6.13
2023-05-20T23:03:16.814Z,6.65
2023-05-20T23:06:02.279Z,6.50
2023-05-20T23:08:47.433Z,6.93
2023-05-20T23:11:32.848Z,6.63
2023-05-20T23:14:18.632Z,6.40
2023-05-20T23:17:03.887Z,6.60
2023-05-20T23:19:48.850Z,6.20
2023-05-20T23:22:34.213Z,6.63
2023-05-20T23:25:19.798Z,7.05
2023-05-20T23:28:05.319Z,6.88
2023-05-20T23:30:50.627Z,7.32
2023-05-20T23:33:35.595Z,7.05
2023-05-20T23:36:21.171Z,6.95
2023-05-20T23:39:06.516Z,7.00
2023-05-20T23:41:51.502Z,6.82
2023-05-20T23:44:36.880Z,7.35
2023-05-20T23:47:22.456Z,7.28
2023-05-20T23:50:07.919Z,7.30
2023-05-20T23:52:53.394Z,7.25
2023-05-20T23:55:39.036Z,7.45
2023-05-20T23:58:24.527Z,7.35
